Time;durP1;ratioP1;P1;durP2;ratioP2;P2;SDS_P1;SDS_P2;PMS_P1;PMS_P2;Temp;Humidity;BMP_temperature;BMP_pressure;BME280_temperature;BME280_humidity;BME280_pressure;Samples;Min_cycle;Max_cycle;Signal;HPM_P1;HPM_P2
2021/12/25 00:00:46;;;;;;;2.63;1.30;;;29.60;99.90;;;;;;5049657;28;20198;-75
2021/12/25 00:03:17;;;;;;;4.95;1.38;;;29.70;99.90;;;;;;5051461;28;20591;-75
2021/12/25 00:05:52;;;;;;;3.38;1.10;;;29.80;99.90;;;;;;5051532;28;20243;-75
2021/12/25 00:08:25;;;;;;;5.43;1.40;;;29.60;99.90;;;;;;5051690;28;20296;-75
2021/12/25 00:10:56;;;;;;;3.63;1.33;;;29.70;99.90;;;;;;5051478;28;20754;-75
2021/12/25 00:13:28;;;;;;;4.88;1.23;;;29.80;99.90;;;;;;5051937;28;20637;-76
2021/12/25 00:15:58;;;;;;;3.22;1.30;;;29.90;99.90;;;;;;5051438;28;20190;-75
2021/12/25 00:18:29;;;;;;;4.15;1.60;;;29.90;99.90;;;;;;5054521;28;20217;-76
2021/12/25 00:21:01;;;;;;;3.70;1.30;;;29.90;99.90;;;;;;5049653;28;21107;-76
2021/12/25 00:23:33;;;;;;;3.33;1.50;;;29.80;99.90;;;;;;5052675;28;20600;-76
2021/12/25 00:26:08;;;;;;;3.30;1.25;;;30.00;99.90;;;;;;5055292;28;20931;-76
2021/12/25 00:28:54;;;;;;;3.80;1.10;;;30.00;99.90;;;;;;5056137;28;20228;-76
2021/12/25 00:31:47;;;;;;;2.97;1.27;;;30.10;99.90;;;;;;5051884;28;20221;-76
2021/12/25 00:34:22;;;;;;;5.57;1.30;;;30.00;99.90;;;;;;5056317;28;20200;-76
2021/12/25 00:36:53;;;;;;;6.03;1.33;;;30.20;99.90;;;;;;5051861;28;20555;-76
2021/12/25 00:39:28;;;;;;;4.70;1.30;;;30.10;99.90;;;;;;5053614;28;20226;-76
2021/12/25 00:41:59;;;;;;;6.03;1.23;;;30.20;99.90;;;;;;5055329;28;20193;-76
2021/12/25 00:44:30;;;;;;;4.63;1.30;;;30.20;99.90;;;;;;5055821;28;20273;-76
2021/12/25 00:47:04;;;;;;;6.47;1.70;;;30.30;99.90;;;;;;5056762;28;20256;-76
2021/12/25 00:49:34;;;;;;;3.47;1.30;;;30.30;99.90;;;;;;5053696;28;20653;-76
2021/12/25 00:52:05;;;;;;;4.10;1.08;;;30.20;99.90;;;;;;5056152;28;20212;-76
2021/12/25 00:54:38;;;;;;;4.53;1.52;;;30.30;99.90;;;;;;5055194;28;20185;-77
2021/12/25 00:57:08;;;;;;;4.35;1.20;;;30.10;99.90;;;;;;5055091;28;20193;-76
2021/12/25 00:59:39;;;;;;;4.63;1.20;;;30.10;99.90;;;;;;5055346;28;20247;-75
2021/12/25 01:02:10;;;;;;;3.63;1.10;;;30.00;99.90;;;;;;5054247;28;20185;-76
2021/12/25 01:04:41;;;;;;;6.32;1.20;;;30.10;99.90;;;;;;5054269;28;20239;-76
2021/12/25 01:07:11;;;;;;;3.72;1.17;;;30.30;99.90;;;;;;5057581;28;20189;-76
2021/12/25 01:09:44;;;;;;;4.93;1.20;;;30.20;99.90;;;;;;5055325;28;20291;-77
2021/12/25 01:12:15;;;;;;;4.57;1.20;;;30.10;99.90;;;;;;5046742;28;20208;-76
2021/12/25 01:14:50;;;;;;;5.50;1.50;;;30.30;99.90;;;;;;5055013;28;20195;-76
2021/12/25 01:18:01;;;;;;;3.60;1.10;;;30.30;99.90;;;;;;5047053;28;20189;-77
2021/12/25 01:23:54;;;;;;;2.53;1.20;;;30.30;99.90;;;;;;5054766;28;20205;-76
2021/12/25 01:29:26;;;;;;;4.15;1.10;;;30.10;99.90;;;;;;5029235;28;20237;-75
2021/12/25 01:32:17;;;;;;;5.40;1.33;;;30.10;99.90;;;;;;5060043;28;20193;-76
2021/12/25 01:35:27;;;;;;;4.38;1.67;;;30.30;99.90;;;;;;5053937;28;20194;-77
2021/12/25 01:38:08;;;;;;;3.58;1.05;;;30.20;99.90;;;;;;5054032;28;20271;-76
2021/12/25 01:40:52;;;;;;;4.32;1.48;;;29.90;99.90;;;;;;5054475;28;20223;-76
2021/12/25 01:48:58;;;;;;;5.65;3.05;;;29.60;99.90;;;;;;5053526;28;20209;-74
2021/12/25 01:51:28;;;;;;;4.10;1.00;;;29.60;99.90;;;;;;5054608;28;20189;-75
2021/12/25 01:53:59;;;;;;;4.75;1.10;;;29.70;99.90;;;;;;5046714;28;20637;-75
2021/12/25 01:56:30;;;;;;;3.33;1.02;;;29.90;99.90;;;;;;5054431;28;20194;-74
2021/12/25 01:59:03;;;;;;;3.38;1.27;;;29.90;99.90;;;;;;5046234;28;20205;-75
2021/12/25 02:01:34;;;;;;;4.43;1.05;;;29.90;99.90;;;;;;5051128;28;20193;-76
2021/12/25 02:04:04;;;;;;;3.03;1.10;;;29.90;99.90;;;;;;5054061;28;20190;-75
2021/12/25 02:06:35;;;;;;;3.95;1.10;;;29.60;99.90;;;;;;5054352;28;20190;-75
2021/12/25 02:09:07;;;;;;;4.43;1.27;;;29.60;99.90;;;;;;5054058;28;20641;-75
2021/12/25 02:11:38;;;;;;;3.83;1.30;;;29.60;99.90;;;;;;5053982;28;20667;-74
2021/12/25 02:14:10;;;;;;;2.78;1.05;;;29.70;99.90;;;;;;5054310;28;20247;-75
2021/12/25 02:16:52;;;;;;;4.75;1.25;;;29.70;99.90;;;;;;5054246;28;20273;-74
2021/12/25 02:19:36;;;;;;;3.20;1.30;;;29.60;99.90;;;;;;5046177;28;20209;-74
2021/12/25 02:22:11;;;;;;;3.55;1.27;;;29.70;99.90;;;;;;5053646;28;20185;-77
2021/12/25 02:24:42;;;;;;;5.55;1.40;;;29.70;99.90;;;;;;5054074;28;20227;-75
2021/12/25 02:27:13;;;;;;;4.22;1.20;;;29.80;99.90;;;;;;5053811;28;20194;-75
2021/12/25 02:29:44;;;;;;;3.55;1.30;;;29.80;99.90;;;;;;5053939;28;20193;-75
2021/12/25 02:32:14;;;;;;;5.80;1.02;;;29.70;99.90;;;;;;5053816;28;20620;-74
2021/12/25 02:34:46;;;;;;;3.75;1.08;;;29.80;99.90;;;;;;5053858;28;20185;-75
2021/12/25 02:37:19;;;;;;;3.92;1.23;;;29.70;99.90;;;;;;5053431;28;20186;-76
2021/12/25 02:39:50;;;;;;;5.40;1.00;;;29.60;99.90;;;;;;5053584;28;20210;-75
2021/12/25 02:42:22;;;;;;;4.28;1.13;;;29.40;99.90;;;;;;5053664;28;20202;-75
2021/12/25 02:44:52;;;;;;;4.07;1.00;;;29.40;99.90;;;;;;5053868;28;20220;-75
2021/12/25 02:47:23;;;;;;;5.40;1.25;;;29.30;99.90;;;;;;5052791;28;20222;-76
2021/12/25 02:49:55;;;;;;;5.13;1.10;;;29.40;99.90;;;;;;5053347;28;20653;-74
2021/12/25 02:52:28;;;;;;;4.95;1.08;;;29.40;99.90;;;;;;5053344;28;20247;-76
2021/12/25 02:54:58;;;;;;;6.05;1.15;;;29.30;99.90;;;;;;5053369;28;20195;-75
2021/12/25 02:57:29;;;;;;;5.88;1.33;;;29.10;99.90;;;;;;5053112;28;20190;-74
2021/12/25 03:00:00;;;;;;;3.05;1.13;;;29.20;99.90;;;;;;5053330;28;20221;-75
2021/12/25 03:02:30;;;;;;;6.55;1.17;;;29.10;99.90;;;;;;5053414;28;20193;-75
2021/12/25 03:05:01;;;;;;;2.92;1.20;;;29.10;99.90;;;;;;5053124;28;20186;-74
2021/12/25 03:07:34;;;;;;;2.58;1.17;;;29.10;99.90;;;;;;5052362;28;20649;-75
2021/12/25 03:10:05;;;;;;;3.38;1.00;;;29.10;99.90;;;;;;5053024;28;20233;-74
2021/12/25 03:12:45;;;;;;;5.43;1.23;;;28.90;99.90;;;;;;5053064;28;20193;-74
2021/12/25 03:15:26;;;;;;;5.07;1.20;;;28.90;99.90;;;;;;5053190;28;20656;-76
2021/12/25 03:17:58;;;;;;;4.05;1.10;;;29.00;99.90;;;;;;5053025;28;20185;-76
2021/12/25 03:20:29;;;;;;;3.70;1.00;;;28.90;99.90;;;;;;5052493;28;20221;-74
2021/12/25 03:23:01;;;;;;;7.13;1.23;;;28.90;99.90;;;;;;5053073;28;20182;-75
2021/12/25 03:25:32;;;;;;;3.10;1.10;;;29.10;99.90;;;;;;5052762;28;20185;-75
2021/12/25 03:28:03;;;;;;;4.10;1.08;;;29.10;99.90;;;;;;5052760;28;20203;-74
2021/12/25 03:30:36;;;;;;;6.22;1.40;;;29.20;99.90;;;;;;5052914;28;20647;-75
2021/12/25 03:33:07;;;;;;;3.58;1.10;;;29.30;99.90;;;;;;5045818;28;20185;-75
2021/12/25 03:35:38;;;;;;;5.85;0.90;;;29.30;99.90;;;;;;5052364;28;20205;-75
2021/12/25 03:38:12;;;;;;;2.67;1.00;;;29.30;99.90;;;;;;5052812;28;20668;-74
2021/12/25 03:40:44;;;;;;;3.95;1.00;;;29.10;99.90;;;;;;5052601;28;20266;-75
2021/12/25 03:43:15;;;;;;;3.65;1.00;;;29.20;99.90;;;;;;5052856;28;20196;-75
2021/12/25 03:45:46;;;;;;;2.60;0.80;;;29.20;99.90;;;;;;5051964;28;20193;-75
2021/12/25 03:48:31;;;;;;;5.45;1.00;;;29.30;99.90;;;;;;5052458;28;20188;-74
2021/12/25 03:59:20;;;;;;;3.78;1.10;;;29.10;99.90;;;;;;5045467;28;20350;-74
2021/12/25 04:01:54;;;;;;;1.92;0.90;;;29.10;99.90;;;;;;5052279;28;20209;-74
2021/12/25 04:04:33;;;;;;;4.97;1.10;;;29.20;99.90;;;;;;5048984;28;20250;-74
2021/12/25 04:07:09;;;;;;;5.07;1.00;;;29.10;99.90;;;;;;5052356;28;20186;-75
2021/12/25 04:09:42;;;;;;;3.55;0.95;;;29.10;99.90;;;;;;5052459;28;20290;-74
2021/12/25 04:12:14;;;;;;;2.50;0.80;;;29.10;99.90;;;;;;5052246;28;20193;-74
2021/12/25 04:14:45;;;;;;;4.45;1.15;;;29.10;99.90;;;;;;5052507;28;20182;-73
2021/12/25 04:17:15;;;;;;;3.30;1.10;;;28.90;99.90;;;;;;5051887;28;20661;-75
2021/12/25 04:19:46;;;;;;;4.43;1.10;;;28.80;99.90;;;;;;5053686;28;20209;-74
2021/12/25 04:22:21;;;;;;;3.58;0.85;;;28.90;99.90;;;;;;5056286;28;20197;-74
2021/12/25 04:24:53;;;;;;;5.13;1.15;;;28.80;99.90;;;;;;5056250;28;20629;-75
2021/12/25 04:27:24;;;;;;;2.88;1.00;;;28.70;99.90;;;;;;5055979;28;20185;-75
2021/12/25 04:30:01;;;;;;;3.20;0.90;;;28.80;99.90;;;;;;5056157;28;20190;-75
2021/12/25 05:03:11;;;;;;;3.58;0.98;;;28.70;99.90;;;;;;5050403;28;20243;-75
2021/12/25 05:05:42;;;;;;;3.72;1.00;;;28.60;99.90;;;;;;5055396;28;20235;-76
2021/12/25 05:08:13;;;;;;;4.32;1.00;;;28.50;99.90;;;;;;5055424;28;20189;-75
2021/12/25 05:10:43;;;;;;;5.78;1.33;;;28.40;99.90;;;;;;5054997;28;20233;-75
2021/12/25 05:13:16;;;;;;;3.83;1.08;;;28.40;99.90;;;;;;5055372;28;20648;-75
2021/12/25 05:15:47;;;;;;;6.50;1.35;;;28.40;99.90;;;;;;5054992;28;20571;-75
2021/12/25 05:18:18;;;;;;;2.42;0.88;;;28.50;99.90;;;;;;5055230;28;20259;-75
2021/12/25 05:20:49;;;;;;;5.22;1.02;;;28.40;99.90;;;;;;5055039;28;20743;-76
2021/12/25 05:23:20;;;;;;;8.38;1.15;;;28.30;99.90;;;;;;5055051;28;20185;-76
2021/12/25 05:25:51;;;;;;;5.28;1.00;;;28.30;99.90;;;;;;5054939;28;20215;-76
2021/12/25 05:28:27;;;;;;;3.67;1.35;;;28.30;99.90;;;;;;5054952;28;20281;-75
2021/12/25 05:30:58;;;;;;;6.28;1.20;;;28.20;99.90;;;;;;5046204;28;20285;-76
2021/12/25 05:33:29;;;;;;;4.88;1.10;;;28.20;99.90;;;;;;5055042;28;20193;-77
2021/12/25 05:35:59;;;;;;;6.93;1.48;;;28.10;99.90;;;;;;5046649;28;20220;-75
2021/12/25 05:38:30;;;;;;;5.03;1.05;;;28.10;99.90;;;;;;5054860;28;20656;-75
2021/12/25 05:41:01;;;;;;;4.85;1.20;;;28.10;99.90;;;;;;5054721;28;20692;-74
2021/12/25 05:43:34;;;;;;;5.00;1.10;;;28.30;99.90;;;;;;5054866;28;20193;-75
2021/12/25 05:46:05;;;;;;;5.13;1.30;;;28.20;99.90;;;;;;5045860;28;20213;-76
2021/12/25 05:48:37;;;;;;;6.63;1.25;;;28.30;99.90;;;;;;5054590;28;20190;-78
2021/12/25 05:51:08;;;;;;;5.78;1.10;;;28.10;99.90;;;;;;5046621;28;20192;-75
2021/12/25 05:53:39;;;;;;;4.28;1.05;;;28.00;99.90;;;;;;5054716;28;20190;-77
2021/12/25 05:56:09;;;;;;;4.03;1.00;;;27.80;99.90;;;;;;5054114;28;20193;-75
2021/12/25 05:58:42;;;;;;;3.22;0.80;;;27.60;99.90;;;;;;5054328;28;20699;-76
2021/12/25 06:01:13;;;;;;;5.25;1.25;;;27.60;99.90;;;;;;5046359;28;20210;-77
2021/12/25 06:03:44;;;;;;;4.07;1.10;;;27.50;99.90;;;;;;5048201;28;20657;-77
2021/12/25 06:06:15;;;;;;;4.40;1.10;;;27.40;99.90;;;;;;5053634;28;20209;-77
2021/12/25 06:08:45;;;;;;;3.92;1.10;;;27.40;99.90;;;;;;5054105;28;20195;-75
2021/12/25 06:11:16;;;;;;;5.05;1.00;;;27.20;99.90;;;;;;5053938;28;20225;-77
2021/12/25 06:13:57;;;;;;;3.00;1.20;;;27.20;99.90;;;;;;5053936;28;20221;-75
2021/12/25 06:16:29;;;;;;;8.63;1.00;;;27.10;99.90;;;;;;5047230;28;20197;-78
2021/12/25 06:18:59;;;;;;;6.72;0.95;;;27.00;99.90;;;;;;5053572;28;20206;-75
2021/12/25 06:21:30;;;;;;;5.18;0.90;;;27.00;99.90;;;;;;5054098;28;20213;-75
2021/12/25 06:24:03;;;;;;;6.28;1.00;;;27.00;99.90;;;;;;5053906;28;20190;-76
2021/12/25 06:26:33;;;;;;;6.93;1.13;;;26.90;99.90;;;;;;5053740;28;20189;-75
2021/12/25 06:29:06;;;;;;;3.35;0.90;;;26.90;99.90;;;;;;5053615;28;20239;-74
2021/12/25 06:31:37;;;;;;;4.88;1.00;;;26.80;99.90;;;;;;5053827;28;20203;-74
2021/12/25 06:34:08;;;;;;;7.28;1.20;;;26.80;99.90;;;;;;5053636;28;20272;-75
2021/12/25 06:36:39;;;;;;;6.90;1.20;;;26.70;99.90;;;;;;5053695;28;20248;-75
2021/12/25 06:39:15;;;;;;;6.80;1.08;;;26.60;99.90;;;;;;5053463;28;20198;-78
2021/12/25 06:41:47;;;;;;;3.97;1.17;;;26.60;99.90;;;;;;5052896;28;20217;-77
2021/12/25 06:44:20;;;;;;;5.53;1.33;;;26.50;99.90;;;;;;5053422;28;20186;-75
2021/12/25 06:46:53;;;;;;;6.20;1.00;;;26.50;99.90;;;;;;5052421;28;20713;-76
2021/12/25 06:49:24;;;;;;;7.05;1.30;;;26.50;99.90;;;;;;5053267;28;20275;-76
2021/12/25 06:51:55;;;;;;;7.28;1.30;;;26.50;99.90;;;;;;5053475;28;20224;-77
2021/12/25 06:54:26;;;;;;;6.43;1.20;;;26.50;99.90;;;;;;5053323;28;20193;-76
2021/12/25 06:56:57;;;;;;;5.80;1.20;;;26.50;99.90;;;;;;5053348;28;20186;-78
2021/12/25 06:59:33;;;;;;;6.55;1.20;;;26.40;99.90;;;;;;5053097;28;20200;-74
2021/12/25 07:02:03;;;;;;;5.28;0.93;;;26.30;99.90;;;;;;5053089;28;20205;-75
2021/12/25 07:04:34;;;;;;;6.32;1.40;;;26.30;99.90;;;;;;5053078;28;20194;-75
2021/12/25 07:07:05;;;;;;;6.03;1.10;;;26.30;99.90;;;;;;5053161;28;20193;-74
2021/12/25 07:09:36;;;;;;;4.75;1.20;;;26.20;99.90;;;;;;5052730;28;20282;-75
2021/12/25 07:12:07;;;;;;;4.82;1.10;;;26.10;99.90;;;;;;5052882;28;20236;-76
2021/12/25 07:14:39;;;;;;;6.28;1.50;;;26.20;99.90;;;;;;5052821;28;20194;-76
2021/12/25 07:17:10;;;;;;;6.90;1.25;;;26.10;99.90;;;;;;5053231;28;20592;-76
2021/12/25 07:19:41;;;;;;;7.43;1.20;;;26.10;99.90;;;;;;5052603;28;20240;-76
2021/12/25 07:22:13;;;;;;;7.70;1.30;;;26.10;99.90;;;;;;5052952;28;20253;-74
2021/12/25 07:24:43;;;;;;;5.53;1.20;;;26.10;99.90;;;;;;5053180;28;20196;-76
2021/12/25 07:27:14;;;;;;;10.88;1.40;;;26.00;99.90;;;;;;5052721;28;20189;-76
2021/12/25 07:29:46;;;;;;;5.55;1.25;;;25.90;99.90;;;;;;5052730;28;20280;-74
2021/12/25 07:32:17;;;;;;;9.27;1.70;;;25.90;99.90;;;;;;5053131;28;20201;-75
2021/12/25 07:34:48;;;;;;;7.53;1.80;;;25.90;99.90;;;;;;5052683;28;20201;-76
2021/12/25 07:37:19;;;;;;;8.63;1.30;;;25.90;99.90;;;;;;5052365;28;20201;-76
2021/12/25 07:39:50;;;;;;;5.65;1.40;;;25.90;99.90;;;;;;5052506;28;20603;-75
2021/12/25 07:42:21;;;;;;;8.30;1.38;;;25.90;99.90;;;;;;5053058;28;20575;-75
2021/12/25 07:45:01;;;;;;;8.05;1.25;;;25.80;99.90;;;;;;5052404;28;20186;-76
2021/12/25 07:47:33;;;;;;;8.40;1.27;;;25.80;99.90;;;;;;5048225;28;20193;-76
2021/12/25 07:50:04;;;;;;;9.57;1.55;;;25.70;99.90;;;;;;5052437;28;20194;-76
2021/12/25 07:52:35;;;;;;;5.20;1.40;;;25.70;99.90;;;;;;5052678;28;20243;-74
2021/12/25 07:55:06;;;;;;;8.68;1.30;;;25.70;99.90;;;;;;5056114;28;20189;-75
2021/12/25 07:57:37;;;;;;;8.95;1.42;;;25.60;99.90;;;;;;5056778;28;20194;-74
2021/12/25 08:00:12;;;;;;;6.20;1.15;;;25.60;99.90;;;;;;5056574;28;20197;-75
2021/12/25 08:02:43;;;;;;;8.23;1.38;;;25.60;99.90;;;;;;5056305;28;20189;-75
2021/12/25 08:05:14;;;;;;;5.75;1.20;;;25.60;99.90;;;;;;5056284;28;20591;-76
2021/12/25 08:07:45;;;;;;;6.18;1.33;;;25.50;99.90;;;;;;5056529;28;20185;-74
2021/12/25 08:10:18;;;;;;;8.50;1.50;;;25.50;99.90;;;;;;5054145;28;20229;-75
2021/12/25 08:12:51;;;;;;;6.75;1.30;;;25.50;99.90;;;;;;5056285;28;20213;-74
2021/12/25 08:15:26;;;;;;;9.63;1.73;;;25.50;99.90;;;;;;5049015;28;20193;-74
2021/12/25 08:17:57;;;;;;;6.97;1.30;;;25.50;99.90;;;;;;5057243;28;20189;-75
2021/12/25 08:20:28;;;;;;;7.07;1.50;;;25.40;99.90;;;;;;5056070;28;20181;-75
2021/12/25 08:22:59;;;;;;;6.80;1.33;;;25.40;99.90;;;;;;5055937;28;20933;-75
2021/12/25 08:25:29;;;;;;;6.28;1.30;;;25.40;99.90;;;;;;5055908;28;20186;-75
2021/12/25 08:28:00;;;;;;;6.22;1.25;;;25.40;99.90;;;;;;5055694;28;20196;-75
2021/12/25 08:30:33;;;;;;;9.85;1.40;;;25.40;99.90;;;;;;5056364;28;20186;-75
2021/12/25 08:33:03;;;;;;;7.47;2.05;;;25.40;99.90;;;;;;5055949;28;20267;-75
2021/12/25 08:35:34;;;;;;;5.50;1.30;;;25.30;99.90;;;;;;5056073;28;20182;-75
2021/12/25 08:38:05;;;;;;;4.80;1.33;;;25.30;99.90;;;;;;5055676;28;20598;-75
2021/12/25 08:40:36;;;;;;;7.88;1.58;;;25.30;99.90;;;;;;5055805;28;20182;-75
2021/12/25 08:43:07;;;;;;;5.63;1.25;;;25.30;99.90;;;;;;5055828;28;20190;-74
2021/12/25 08:45:45;;;;;;;8.18;1.40;;;25.20;99.90;;;;;;5048091;28;20217;-74
2021/12/25 08:48:26;;;;;;;9.23;1.20;;;25.20;99.90;;;;;;5055262;28;20201;-75
2021/12/25 08:51:02;;;;;;;9.23;1.27;;;25.20;99.90;;;;;;5055550;28;20194;-75
2021/12/25 08:53:33;;;;;;;5.47;1.25;;;25.20;99.90;;;;;;5055460;28;20338;-74
2021/12/25 08:56:03;;;;;;;7.68;1.20;;;25.10;99.90;;;;;;5055643;28;20193;-74
2021/12/25 08:58:37;;;;;;;6.13;1.20;;;25.10;99.90;;;;;;5055464;28;20816;-76
2021/12/25 09:01:11;;;;;;;7.43;1.45;;;25.10;99.90;;;;;;5055414;28;20711;-74
2021/12/25 09:03:42;;;;;;;7.68;1.25;;;25.10;99.90;;;;;;5047352;28;20186;-74
2021/12/25 09:06:13;;;;;;;9.75;1.58;;;25.00;99.90;;;;;;5054396;28;20193;-74
2021/12/25 09:08:43;;;;;;;7.30;1.30;;;25.00;99.90;;;;;;5055214;28;20245;-75
2021/12/25 09:11:14;;;;;;;8.90;1.17;;;25.00;99.90;;;;;;5055251;28;20240;-74
2021/12/25 09:13:45;;;;;;;9.10;1.52;;;25.00;99.90;;;;;;5054761;28;20185;-74
2021/12/25 09:16:17;;;;;;;7.53;1.38;;;25.00;99.90;;;;;;5055388;28;20205;-73
2021/12/25 09:18:48;;;;;;;7.57;1.20;;;24.90;99.90;;;;;;5055091;28;20190;-73
2021/12/25 09:21:19;;;;;;;8.57;1.65;;;24.90;99.90;;;;;;5054639;28;20295;-75
2021/12/25 09:23:50;;;;;;;8.70;1.27;;;24.90;99.90;;;;;;5054814;28;20190;-74
2021/12/25 09:26:21;;;;;;;9.18;1.40;;;24.90;99.90;;;;;;5055283;28;20314;-74
2021/12/25 09:28:54;;;;;;;8.50;1.00;;;24.80;99.90;;;;;;5054884;28;20205;-74
2021/12/25 09:31:27;;;;;;;6.70;1.33;;;24.80;99.90;;;;;;5054935;28;20271;-74
2021/12/25 09:33:57;;;;;;;7.68;1.27;;;24.80;99.90;;;;;;5046754;28;20193;-74
2021/12/25 09:36:29;;;;;;;8.27;1.33;;;24.80;99.90;;;;;;5054942;28;20193;-74
2021/12/25 09:39:00;;;;;;;6.93;1.38;;;24.80;99.90;;;;;;5046746;28;20538;-73
2021/12/25 09:41:32;;;;;;;6.15;1.27;;;24.80;99.90;;;;;;5054813;28;20213;-75
2021/12/25 09:44:06;;;;;;;8.55;1.25;;;24.80;99.90;;;;;;5046598;28;20189;-76
2021/12/25 09:46:38;;;;;;;6.95;1.23;;;24.80;99.90;;;;;;5054019;28;20594;-74
2021/12/25 09:49:11;;;;;;;8.35;1.33;;;24.80;99.90;;;;;;5050999;28;20202;-74
2021/12/25 09:51:42;;;;;;;9.73;1.15;;;24.80;99.90;;;;;;5054172;28;20233;-74
2021/12/25 09:54:14;;;;;;;8.63;1.20;;;24.80;99.90;;;;;;5047177;28;20212;-74
2021/12/25 09:56:48;;;;;;;7.63;1.33;;;24.80;99.90;;;;;;5054271;28;20646;-74
2021/12/25 09:59:19;;;;;;;6.93;1.27;;;24.80;99.90;;;;;;5047520;28;20197;-73
2021/12/25 10:01:52;;;;;;;11.25;1.35;;;24.80;99.90;;;;;;5054298;28;20225;-74
2021/12/25 10:04:40;;;;;;;5.53;1.13;;;24.70;99.90;;;;;;5054356;28;20652;-74
2021/12/25 10:07:25;;;;;;;8.45;1.30;;;24.70;99.90;;;;;;5054147;28;20198;-75
2021/12/25 10:10:10;;;;;;;9.70;1.40;;;24.70;99.90;;;;;;5045390;28;20237;-75
2021/12/25 10:12:43;;;;;;;8.20;1.50;;;24.70;99.90;;;;;;5049291;28;20201;-74
2021/12/25 10:15:16;;;;;;;5.32;1.00;;;24.70;99.90;;;;;;5053694;28;20196;-74
2021/12/25 10:17:50;;;;;;;6.10;1.50;;;24.70;99.90;;;;;;5054082;28;20252;-74
2021/12/25 10:20:22;;;;;;;8.10;1.40;;;24.60;99.90;;;;;;5045768;28;20222;-74
2021/12/25 10:23:04;;;;;;;6.85;1.17;;;24.70;99.90;;;;;;5053909;28;20216;-74
2021/12/25 10:25:38;;;;;;;7.05;1.38;;;24.60;99.90;;;;;;5054444;28;20197;-73
2021/12/25 10:28:11;;;;;;;7.78;1.38;;;24.60;99.90;;;;;;5053188;28;20269;-74
2021/12/25 10:30:50;;;;;;;6.43;1.20;;;24.60;99.90;;;;;;5053331;28;20186;-74
2021/12/25 10:33:36;;;;;;;7.32;1.30;;;24.60;99.90;;;;;;5053297;28;20670;-75
2021/12/25 10:36:10;;;;;;;11.18;1.50;;;24.60;99.90;;;;;;5052721;28;20192;-77
2021/12/25 10:38:42;;;;;;;6.57;1.40;;;24.60;99.90;;;;;;5047128;28;20197;-77
2021/12/25 10:41:22;;;;;;;6.53;1.30;;;24.60;99.90;;;;;;5048762;28;20277;-77
2021/12/25 10:43:54;;;;;;;10.00;1.40;;;24.60;99.90;;;;;;5048576;28;20273;-77
2021/12/25 10:46:25;;;;;;;8.80;1.40;;;24.60;99.90;;;;;;5052896;28;20225;-76
2021/12/25 10:48:58;;;;;;;6.22;1.20;;;24.60;99.90;;;;;;5058576;28;20535;-77
2021/12/25 10:51:31;;;;;;;7.18;1.20;;;24.60;99.90;;;;;;5045921;28;20219;-78
2021/12/25 10:54:03;;;;;;;8.32;1.40;;;24.60;99.90;;;;;;5053249;28;20194;-78
2021/12/25 10:56:42;;;;;;;8.40;1.52;;;24.50;99.90;;;;;;5053034;28;20259;-77
2021/12/25 10:59:18;;;;;;;12.88;1.63;;;24.50;99.90;;;;;;5053400;28;20559;-76
2021/12/25 11:01:58;;;;;;;9.85;1.42;;;24.50;99.90;;;;;;5046376;28;20228;-74
2021/12/25 11:04:32;;;;;;;9.80;1.70;;;24.50;99.90;;;;;;5052283;28;20659;-74
2021/12/25 11:07:23;;;;;;;6.00;1.23;;;24.50;99.90;;;;;;5053240;28;20192;-75
2021/12/25 11:10:15;;;;;;;8.52;1.33;;;24.30;99.90;;;;;;5049245;28;20252;-75
2021/12/25 11:12:46;;;;;;;10.20;1.30;;;24.40;99.90;;;;;;5047939;28;20196;-75
2021/12/25 11:15:20;;;;;;;10.38;1.67;;;24.30;99.90;;;;;;5053288;28;20205;-75
2021/12/25 11:17:53;;;;;;;8.70;1.60;;;24.30;99.90;;;;;;5045799;28;20186;-75
2021/12/25 11:20:33;;;;;;;9.10;1.35;;;24.30;99.90;;;;;;5053142;28;20200;-74
2021/12/25 11:23:09;;;;;;;10.05;1.58;;;24.30;99.90;;;;;;5052771;28;20209;-75
2021/12/25 11:25:41;;;;;;;7.95;1.33;;;24.30;99.90;;;;;;5052816;28;20192;-75
2021/12/25 11:28:15;;;;;;;9.70;1.30;;;24.20;99.90;;;;;;5052477;28;20197;-75
2021/12/25 11:30:49;;;;;;;9.40;1.50;;;24.20;99.90;;;;;;5052672;28;20619;-75
2021/12/25 11:33:20;;;;;;;10.60;1.20;;;24.20;99.90;;;;;;5052766;28;20277;-75
2021/12/25 11:35:56;;;;;;;9.90;1.48;;;24.20;99.90;;;;;;5051998;28;20575;-74
2021/12/25 11:38:28;;;;;;;7.60;1.30;;;24.10;99.90;;;;;;5051395;28;20197;-73
2021/12/25 11:41:10;;;;;;;8.10;1.52;;;24.10;99.90;;;;;;5048089;28;20198;-73
2021/12/25 11:43:46;;;;;;;5.40;1.38;;;24.10;99.90;;;;;;5050910;28;20252;-74
2021/12/25 11:46:17;;;;;;;6.68;1.40;;;24.10;99.90;;;;;;5051067;28;20220;-74
2021/12/25 11:49:05;;;;;;;8.38;1.20;;;24.10;99.90;;;;;;5052324;28;20192;-75
2021/12/25 11:51:42;;;;;;;9.85;1.65;;;24.10;99.90;;;;;;5052417;28;20212;-75
2021/12/25 11:54:54;;;;;;;6.70;1.10;;;24.00;99.90;;;;;;5052536;28;20200;-78
2021/12/25 11:57:56;;;;;;;6.22;1.27;;;24.00;99.90;;;;;;5047772;28;20221;-74
2021/12/25 12:00:53;;;;;;;9.95;1.77;;;24.00;99.90;;;;;;5052898;28;20271;-73
2021/12/25 12:03:42;;;;;;;9.05;1.50;;;24.00;99.90;;;;;;5016530;28;20700;-73
2021/12/25 12:06:13;;;;;;;9.57;1.65;;;24.00;99.90;;;;;;5045560;28;20190;-76
2021/12/25 12:09:10;;;;;;;7.18;1.40;;;24.00;99.90;;;;;;5052085;28;20190;-76
2021/12/25 12:11:41;;;;;;;6.20;1.20;;;24.00;99.90;;;;;;5049721;28;20273;-74
2021/12/25 12:14:21;;;;;;;7.68;1.33;;;23.90;99.90;;;;;;5051740;28;20622;-73
2021/12/25 12:16:53;;;;;;;8.13;1.27;;;23.90;99.90;;;;;;5052191;28;20189;-75
2021/12/25 12:19:52;;;;;;;7.00;1.38;;;23.90;99.90;;;;;;5051844;28;20561;-74
2021/12/25 12:26:02;;;;;;;11.65;1.85;;;23.90;99.90;;;;;;5028713;28;20189;-73
2021/12/25 12:28:54;;;;;;;7.55;1.20;;;23.90;99.90;;;;;;5051769;28;20204;-75
2021/12/25 12:31:45;;;;;;;9.18;1.40;;;23.80;99.90;;;;;;5045972;28;20189;-75
2021/12/25 12:34:38;;;;;;;8.10;1.40;;;23.80;99.90;;;;;;5041398;28;20205;-75
2021/12/25 12:37:32;;;;;;;7.20;1.15;;;23.80;99.90;;;;;;5056103;28;20195;-74
2021/12/25 12:40:21;;;;;;;6.03;1.20;;;23.70;99.90;;;;;;5050737;28;20232;-74
2021/12/25 12:42:58;;;;;;;10.52;1.70;;;23.70;99.90;;;;;;5055781;28;20237;-74
2021/12/25 12:45:36;;;;;;;4.93;1.00;;;23.70;99.90;;;;;;5058646;28;20217;-77
2021/12/25 12:48:19;;;;;;;6.95;1.45;;;23.70;99.90;;;;;;5037968;28;20198;-74
2021/12/25 12:50:55;;;;;;;8.50;1.38;;;23.70;99.90;;;;;;5055038;28;20625;-74
2021/12/25 12:53:27;;;;;;;6.47;1.20;;;23.60;99.90;;;;;;5048937;28;20247;-74
2021/12/25 12:56:07;;;;;;;7.03;1.50;;;23.60;99.90;;;;;;5055386;28;20186;-74
2021/12/25 12:58:53;;;;;;;11.23;1.50;;;23.60;99.90;;;;;;5055554;28;20185;-76
2021/12/25 13:01:24;;;;;;;6.43;1.38;;;23.60;99.90;;;;;;5054808;28;20186;-76
2021/12/25 13:04:05;;;;;;;11.82;1.73;;;23.60;99.90;;;;;;5055480;28;20217;-74
2021/12/25 13:06:35;;;;;;;9.98;1.48;;;23.50;99.90;;;;;;5055721;28;20281;-74
2021/12/25 13:09:12;;;;;;;5.93;1.25;;;23.50;99.90;;;;;;5055080;28;20570;-74
2021/12/25 13:11:58;;;;;;;7.85;1.40;;;23.50;99.90;;;;;;5050005;28;20227;-75
2021/12/25 13:14:33;;;;;;;9.45;1.30;;;23.50;99.90;;;;;;5047862;28;20696;-75
2021/12/25 13:17:10;;;;;;;9.93;1.27;;;23.40;99.90;;;;;;5055183;28;20185;-75
2021/12/25 13:19:50;;;;;;;8.82;1.20;;;23.40;99.90;;;;;;5054913;28;20193;-74
2021/12/25 13:22:21;;;;;;;11.55;1.40;;;23.40;99.90;;;;;;5055107;28;20640;-76
2021/12/25 13:24:56;;;;;;;6.70;1.30;;;23.30;99.90;;;;;;5055410;28;20197;-75
2021/12/25 13:27:28;;;;;;;6.97;1.35;;;23.30;99.90;;;;;;5052782;28;20192;-74
2021/12/25 13:30:08;;;;;;;5.53;1.27;;;23.30;99.90;;;;;;5054818;28;20189;-75
2021/12/25 13:32:41;;;;;;;5.57;1.33;;;23.30;99.90;;;;;;5054378;28;20197;-76
2021/12/25 13:35:15;;;;;;;6.40;1.23;;;23.30;99.90;;;;;;5054468;28;20189;-76
2021/12/25 13:37:46;;;;;;;7.60;1.48;;;23.30;99.90;;;;;;5049311;28;20182;-75
2021/12/25 13:40:16;;;;;;;9.10;1.50;;;23.30;99.90;;;;;;5054483;28;20646;-76
2021/12/25 13:42:47;;;;;;;7.90;1.40;;;23.30;99.90;;;;;;5054466;28;20582;-75
2021/12/25 13:45:21;;;;;;;5.88;1.40;;;23.30;99.90;;;;;;5053703;28;20307;-75
2021/12/25 13:47:58;;;;;;;7.60;1.30;;;23.20;99.90;;;;;;5053992;28;20186;-74
2021/12/25 13:50:28;;;;;;;8.52;1.38;;;23.20;99.90;;;;;;5054334;28;20201;-74
2021/12/25 13:53:15;;;;;;;9.55;1.10;;;23.20;99.90;;;;;;5054033;28;20660;-76
2021/12/25 13:55:47;;;;;;;7.05;1.23;;;23.20;99.90;;;;;;5054827;28;20186;-73
2021/12/25 13:58:19;;;;;;;7.97;1.40;;;23.10;99.90;;;;;;5054087;28;20198;-74
2021/12/25 14:00:53;;;;;;;8.55;1.60;;;23.10;99.90;;;;;;5048168;28;20275;-74
2021/12/25 14:03:29;;;;;;;6.25;1.33;;;23.10;99.90;;;;;;5054070;28;20216;-74
2021/12/25 14:06:00;;;;;;;7.43;1.42;;;23.10;99.90;;;;;;5054289;28;20193;-74
2021/12/25 14:08:31;;;;;;;6.60;1.27;;;23.10;99.90;;;;;;5054185;28;20197;-73
2021/12/25 14:11:04;;;;;;;4.97;1.25;;;23.00;99.90;;;;;;5058136;28;20274;-75
2021/12/25 14:13:36;;;;;;;10.18;1.40;;;23.00;99.90;;;;;;5051118;28;20205;-75
2021/12/25 14:16:10;;;;;;;7.60;1.20;;;23.00;99.90;;;;;;5054444;28;20205;-74